Time;durP1;ratioP1;P1;durP2;ratioP2;P2;SDS_P1;SDS_P2;PMS_P1;PMS_P2;Temp;Humidity;BMP_temperature;BMP_pressure;BME280_temperature;BME280_humidity;BME280_pressure;Samples;Min_cycle;Max_cycle;Signal;HPM_P1;HPM_P2
2023/05/06 00:01:37;;;;;;;4.23;3.83;;;14.00;1.00;;;;;;4999233;28;21513;-43
2023/05/06 00:04:03;;;;;;;4.70;4.30;;;13.90;1.00;;;;;;4999590;28;20179;-41
2023/05/06 00:06:29;;;;;;;4.20;3.80;;;14.00;1.00;;;;;;4999237;28;20207;-41
2023/05/06 00:08:55;;;;;;;4.43;3.63;;;13.90;1.00;;;;;;5000297;28;20172;-42
2023/05/06 00:11:20;;;;;;;4.67;4.27;;;13.90;1.00;;;;;;5000551;28;20207;-41
2023/05/06 00:13:46;;;;;;;4.10;3.80;;;14.00;1.00;;;;;;4982152;28;20168;-41
2023/05/06 00:16:12;;;;;;;4.00;3.70;;;13.90;1.00;;;;;;4999271;28;20188;-40
2023/05/06 00:18:37;;;;;;;3.87;3.57;;;13.90;1.00;;;;;;4999448;28;20180;-39
2023/05/06 00:21:03;;;;;;;3.90;3.23;;;13.80;1.00;;;;;;4998953;28;20318;-39
2023/05/06 00:23:29;;;;;;;4.20;3.30;;;13.90;1.00;;;;;;4999920;28;20601;-42
2023/05/06 00:25:54;;;;;;;5.60;3.17;;;13.90;1.00;;;;;;4999197;28;20207;-41
2023/05/06 00:28:20;;;;;;;4.67;3.47;;;13.90;1.00;;;;;;4998561;28;20180;-44
2023/05/06 00:30:46;;;;;;;4.70;3.40;;;13.90;1.00;;;;;;4998760;28;20176;-41
2023/05/06 00:33:12;;;;;;;4.10;3.60;;;13.90;1.00;;;;;;4999226;28;20177;-42
2023/05/06 00:35:37;;;;;;;3.87;3.27;;;13.80;99.90;;;;;;4999247;28;20175;-41
2023/05/06 00:38:11;;;;;;;3.50;3.20;;;13.80;1.00;;;;;;4998833;28;20187;-40
2023/05/06 00:40:37;;;;;;;3.70;3.40;;;13.70;1.00;;;;;;4998804;28;20203;-42
2023/05/06 00:43:03;;;;;;;3.63;3.33;;;13.70;1.00;;;;;;4998337;28;20517;-42
2023/05/06 00:45:29;;;;;;;4.70;3.40;;;13.70;1.00;;;;;;4998573;28;20744;-39
2023/05/06 00:47:56;;;;;;;3.60;2.87;;;13.70;1.00;;;;;;4998160;28;20439;-41
2023/05/06 00:50:22;;;;;;;3.67;3.33;;;13.70;1.00;;;;;;4998359;28;20509;-42
2023/05/06 00:52:48;;;;;;;3.43;3.10;;;13.70;1.00;;;;;;4987817;28;20585;-40
2023/05/06 00:55:14;;;;;;;3.33;2.90;;;13.70;1.00;;;;;;4998383;28;20415;-40
2023/05/06 00:57:40;;;;;;;4.30;2.80;;;13.70;1.00;;;;;;4997734;28;20716;-40
2023/05/06 01:00:06;;;;;;;3.73;3.20;;;13.70;1.00;;;;;;4997068;28;20469;-39
2023/05/06 01:02:32;;;;;;;5.20;3.00;;;13.70;1.00;;;;;;4997793;28;20431;-42
2023/05/06 01:04:59;;;;;;;3.70;3.33;;;13.70;1.00;;;;;;4997682;28;20411;-42
2023/05/06 01:07:50;;;;;;;3.20;2.90;;;13.70;1.00;;;;;;4996485;28;20462;-40
2023/05/06 01:10:34;;;;;;;3.80;3.20;;;13.70;1.00;;;;;;4998208;28;20852;-40
2023/05/06 01:13:39;;;;;;;3.20;2.90;;;13.70;1.00;;;;;;4998219;28;20418;-41
2023/05/06 01:16:08;;;;;;;4.40;3.17;;;13.60;1.00;;;;;;4997493;28;20426;-41
2023/05/06 01:18:34;;;;;;;5.20;2.90;;;13.60;1.00;;;;;;4997760;28;20422;-40
2023/05/06 01:21:00;;;;;;;4.33;3.80;;;13.60;1.00;;;;;;4996546;28;20408;-40
2023/05/06 01:23:26;;;;;;;3.47;3.17;;;13.50;1.00;;;;;;4997837;28;20418;-41
2023/05/06 01:25:52;;;;;;;4.00;3.43;;;13.50;1.00;;;;;;4998307;28;20556;-41
2023/05/06 01:28:17;;;;;;;3.30;3.00;;;13.50;1.00;;;;;;4998032;28;20172;-40
2023/05/06 01:31:00;;;;;;;5.30;3.43;;;13.50;1.00;;;;;;4998105;28;20203;-41
2023/05/06 01:33:43;;;;;;;4.30;3.50;;;13.50;1.00;;;;;;4997113;28;20211;-40
2023/05/06 01:36:17;;;;;;;5.70;3.67;;;13.50;1.00;;;;;;4997086;28;20624;-40
2023/05/06 01:38:46;;;;;;;7.60;3.33;;;13.50;1.00;;;;;;4995490;28;20820;-40
2023/05/06 01:41:15;;;;;;;3.40;3.10;;;13.40;1.00;;;;;;4996130;28;20678;-39
2023/05/06 01:43:43;;;;;;;4.30;3.27;;;13.30;1.00;;;;;;4996223;28;20430;-40
2023/05/06 01:46:14;;;;;;;3.90;3.60;;;13.30;1.00;;;;;;4979191;28;20474;-42
2023/05/06 01:48:40;;;;;;;3.87;3.47;;;13.30;1.00;;;;;;4996151;28;20402;-40
2023/05/06 01:51:06;;;;;;;3.93;3.53;;;13.30;1.00;;;;;;4996557;28;20417;-42
2023/05/06 01:53:35;;;;;;;4.23;3.83;;;13.20;1.00;;;;;;4996844;28;20281;-42
2023/05/06 01:56:00;;;;;;;4.67;4.27;;;13.30;1.00;;;;;;4979382;28;20179;-39
2023/05/06 01:58:26;;;;;;;3.93;3.63;;;13.30;1.00;;;;;;4996553;28;20439;-40
2023/05/06 02:00:52;;;;;;;3.90;3.60;;;13.30;1.00;;;;;;4996395;28;20183;-41
2023/05/06 02:03:17;;;;;;;3.70;3.40;;;13.20;1.00;;;;;;4996697;28;20184;-40
2023/05/06 02:05:43;;;;;;;4.20;3.70;;;13.20;1.00;;;;;;4994979;28;20207;-39
2023/05/06 02:08:09;;;;;;;4.07;3.77;;;13.20;1.00;;;;;;4996580;28;20481;-39
2023/05/06 02:10:34;;;;;;;4.20;3.90;;;13.20;1.00;;;;;;4997835;28;20577;-39
2023/05/06 02:13:00;;;;;;;4.83;4.10;;;13.20;1.00;;;;;;4997010;28;20188;-40
2023/05/06 02:15:26;;;;;;;4.73;4.33;;;13.20;1.00;;;;;;4979797;28;20197;-41
2023/05/06 02:17:51;;;;;;;4.33;3.93;;;13.20;1.00;;;;;;4997366;28;20512;-39
2023/05/06 02:20:17;;;;;;;4.70;4.10;;;13.30;1.00;;;;;;4996536;28;20183;-40
2023/05/06 02:22:43;;;;;;;5.53;5.03;;;13.30;1.00;;;;;;4979130;28;20219;-41
2023/05/06 02:25:09;;;;;;;4.60;4.17;;;13.30;1.00;;;;;;4997283;28;20180;-40
2023/05/06 02:27:34;;;;;;;5.40;3.00;;;13.30;1.00;;;;;;4999356;28;20302;-40
2023/05/06 02:30:01;;;;;;;4.20;3.90;;;13.30;1.00;;;;;;4996439;28;20800;-41
2023/05/06 02:32:26;;;;;;;4.67;3.47;;;13.40;1.00;;;;;;4995534;28;20184;-40
2023/05/06 02:34:52;;;;;;;4.60;4.03;;;13.40;1.00;;;;;;4996176;28;20510;-40
2023/05/06 02:37:18;;;;;;;3.80;3.50;;;13.40;1.00;;;;;;4996462;28;20199;-40
2023/05/06 02:39:43;;;;;;;4.23;3.93;;;13.40;1.00;;;;;;4996600;28;20176;-40
2023/05/06 02:42:13;;;;;;;4.10;3.80;;;13.40;1.00;;;;;;4996618;28;20224;-39
2023/05/06 02:44:39;;;;;;;4.13;3.83;;;13.40;1.00;;;;;;4997211;28;20480;-41
2023/05/06 02:47:05;;;;;;;4.40;3.80;;;13.40;1.00;;;;;;5000486;28;20491;-40
2023/05/06 02:49:30;;;;;;;4.70;4.20;;;13.40;1.00;;;;;;5000738;28;20431;-40
2023/05/06 02:51:56;;;;;;;3.80;3.50;;;13.40;1.00;;;;;;5003937;28;20262;-39
2023/05/06 02:54:22;;;;;;;3.73;3.43;;;13.30;1.00;;;;;;5019471;28;20257;-42
2023/05/06 02:56:47;;;;;;;4.37;3.90;;;13.30;1.00;;;;;;5018704;28;20253;-40
2023/05/06 02:59:13;;;;;;;4.50;3.97;;;13.30;1.00;;;;;;5019299;28;20237;-40
2023/05/06 03:01:39;;;;;;;5.70;4.30;;;13.30;1.00;;;;;;5019394;28;20205;-41
2023/05/06 03:04:05;;;;;;;4.97;4.47;;;13.30;1.00;;;;;;5019412;28;20183;-41
2023/05/06 03:06:31;;;;;;;7.10;4.67;;;13.20;1.00;;;;;;5019336;28;20478;-40
2023/05/06 03:08:57;;;;;;;4.63;4.20;;;13.20;1.00;;;;;;5019309;28;20420;-41
2023/05/06 03:11:22;;;;;;;6.37;4.47;;;13.20;1.00;;;;;;5020227;28;20523;-41
2023/05/06 03:13:48;;;;;;;5.10;4.23;;;13.20;1.00;;;;;;5020288;28;20212;-40
2023/05/06 03:16:14;;;;;;;4.83;4.43;;;13.20;1.00;;;;;;5020186;28;20188;-41
2023/05/06 03:18:40;;;;;;;4.90;4.37;;;13.10;1.00;;;;;;5020217;28;20182;-40
2023/05/06 03:21:05;;;;;;;5.07;4.57;;;13.10;1.00;;;;;;5019796;28;20182;-47
2023/05/06 03:23:31;;;;;;;5.03;4.60;;;13.10;1.00;;;;;;5004791;28;20188;-40
2023/05/06 03:25:57;;;;;;;5.00;4.60;;;13.20;1.00;;;;;;5000331;28;20226;-41
2023/05/06 03:28:22;;;;;;;8.63;5.20;;;13.20;1.00;;;;;;5000097;28;20254;-41
2023/05/06 03:30:48;;;;;;;5.30;4.80;;;13.10;1.00;;;;;;5000285;28;20175;-41
2023/05/06 03:33:14;;;;;;;5.20;4.70;;;13.00;1.00;;;;;;5000361;28;20183;-40
2023/05/06 03:35:40;;;;;;;5.87;4.70;;;13.00;1.00;;;;;;5000191;28;20184;-39
2023/05/06 03:38:05;;;;;;;4.83;4.17;;;13.00;1.00;;;;;;4999270;28;20505;-40
2023/05/06 03:40:32;;;;;;;5.00;4.50;;;13.00;1.00;;;;;;4999249;28;20199;-39
2023/05/06 03:42:57;;;;;;;5.77;5.30;;;13.00;1.00;;;;;;4981808;28;20438;-40
2023/05/06 03:45:23;;;;;;;5.83;5.27;;;12.90;1.00;;;;;;4998429;28;20415;-40
2023/05/06 03:47:49;;;;;;;6.10;5.50;;;12.90;1.00;;;;;;4999347;28;20183;-40
2023/05/06 03:50:14;;;;;;;6.67;4.80;;;12.90;1.00;;;;;;4998639;28;20262;-39
2023/05/06 03:52:40;;;;;;;5.80;4.97;;;12.90;1.00;;;;;;4998059;28;20232;-38
2023/05/06 03:55:06;;;;;;;6.40;5.80;;;12.90;1.00;;;;;;4981411;28;20314;-40
2023/05/06 03:57:32;;;;;;;6.57;5.60;;;12.80;1.00;;;;;;4997859;28;20696;-40
2023/05/06 03:59:58;;;;;;;6.17;5.60;;;12.80;1.00;;;;;;4999263;28;20712;-44
2023/05/06 04:02:24;;;;;;;6.17;5.53;;;12.80;1.00;;;;;;4999835;28;20180;-39
2023/05/06 04:04:49;;;;;;;6.13;5.53;;;12.70;1.00;;;;;;4982394;28;20434;-41
2023/05/06 04:07:15;;;;;;;6.70;6.00;;;12.70;1.00;;;;;;4998992;28;20931;-41
2023/05/06 04:09:41;;;;;;;5.87;5.03;;;12.70;1.00;;;;;;4997572;28;20462;-41
2023/05/06 04:12:06;;;;;;;5.40;5.00;;;12.70;1.00;;;;;;4981456;28;20342;-40
2023/05/06 04:14:32;;;;;;;5.53;4.93;;;12.70;1.00;;;;;;4998405;28;20242;-40
2023/05/06 04:16:58;;;;;;;5.23;4.83;;;12.70;1.00;;;;;;4998812;28;20825;-38
2023/05/06 04:19:23;;;;;;;6.10;5.47;;;12.70;1.00;;;;;;4998284;28;20182;-38
2023/05/06 04:21:49;;;;;;;5.70;5.20;;;12.70;1.00;;;;;;4981480;28;20254;-39
2023/05/06 04:24:15;;;;;;;6.03;5.50;;;12.70;1.00;;;;;;4999401;28;20271;-40
2023/05/06 04:26:41;;;;;;;5.67;5.20;;;12.70;1.00;;;;;;4999416;28;20211;-42
2023/05/06 04:29:07;;;;;;;5.60;5.10;;;12.70;1.00;;;;;;4999349;28;20199;-39
2023/05/06 04:31:33;;;;;;;5.83;5.33;;;12.70;1.00;;;;;;4999182;28;20423;-41
2023/05/06 04:34:00;;;;;;;5.93;5.33;;;12.60;1.00;;;;;;4998370;28;20851;-40
2023/05/06 04:36:26;;;;;;;5.83;5.33;;;12.60;1.00;;;;;;4999092;28;20429;-41
2023/05/06 04:38:52;;;;;;;6.03;5.50;;;12.60;1.00;;;;;;4999227;28;20859;-38
2023/05/06 04:41:19;;;;;;;5.80;5.27;;;12.60;1.00;;;;;;4999179;28;20589;-40
2023/05/06 04:43:45;;;;;;;5.57;5.17;;;12.60;1.00;;;;;;4997976;28;20423;-39
2023/05/06 04:46:10;;;;;;;6.67;6.07;;;12.70;1.00;;;;;;4998672;28;20736;-41
2023/05/06 04:48:36;;;;;;;6.90;6.20;;;12.60;1.00;;;;;;4998313;28;20411;-40
2023/05/06 04:51:04;;;;;;;6.83;6.20;;;12.70;1.00;;;;;;4998782;28;20171;-39
2023/05/06 04:53:30;;;;;;;8.50;6.20;;;12.70;1.00;;;;;;5015345;28;20745;-39
2023/05/06 04:55:55;;;;;;;7.60;5.67;;;12.80;1.00;;;;;;5017706;28;20414;-39
2023/05/06 04:58:21;;;;;;;5.00;4.60;;;12.80;1.00;;;;;;5016428;28;20430;-41
2023/05/06 05:00:47;;;;;;;6.70;6.00;;;12.90;1.00;;;;;;5016029;28;20286;-39
2023/05/06 05:03:13;;;;;;;6.13;5.60;;;12.90;1.00;;;;;;4998455;28;20199;-38
2023/05/06 05:05:38;;;;;;;5.90;5.40;;;13.00;1.00;;;;;;5015610;28;20199;-38
2023/05/06 05:08:04;;;;;;;5.57;5.10;;;13.00;99.90;;;;;;5014294;28;20600;-42
2023/05/06 05:10:30;;;;;;;7.30;4.97;;;13.00;99.90;;;;;;5015175;28;20277;-43
2023/05/06 05:12:56;;;;;;;6.50;5.90;;;13.10;99.90;;;;;;4997709;28;20585;-41
2023/05/06 05:15:22;;;;;;;6.20;5.70;;;13.10;99.90;;;;;;5015895;28;20170;-39
2023/05/06 05:17:49;;;;;;;6.10;5.60;;;13.20;99.90;;;;;;5002881;28;20880;-40
2023/05/06 05:20:15;;;;;;;6.83;6.23;;;13.20;99.90;;;;;;4997077;28;20272;-41
2023/05/06 05:22:40;;;;;;;6.73;6.03;;;13.30;99.90;;;;;;5002959;28;20528;-40
2023/05/06 05:25:07;;;;;;;7.70;7.10;;;13.40;99.90;;;;;;5015426;28;20505;-41
2023/05/06 05:27:32;;;;;;;8.23;6.03;;;13.50;99.90;;;;;;4976200;28;20219;-39
2023/05/06 05:29:58;;;;;;;6.80;6.30;;;13.50;99.90;;;;;;4976368;28;20416;-39
2023/05/06 05:32:25;;;;;;;7.30;6.60;;;13.60;99.90;;;;;;4959514;28;20184;-43
2023/05/06 05:34:51;;;;;;;7.17;5.80;;;13.70;99.90;;;;;;4976537;28;20416;-39
2023/05/06 05:37:17;;;;;;;6.37;5.80;;;13.70;99.90;;;;;;4976109;28;20428;-41
2023/05/06 05:39:43;;;;;;;6.47;5.83;;;13.80;99.90;;;;;;4977217;28;20420;-40
2023/05/06 05:42:08;;;;;;;6.50;5.90;;;14.00;99.90;;;;;;4977293;28;20606;-42
2023/05/06 05:44:34;;;;;;;7.63;6.77;;;14.10;99.90;;;;;;4977632;28;20199;-39
2023/05/06 05:47:01;;;;;;;5.50;5.10;;;14.20;99.90;;;;;;4977005;28;20217;-44
2023/05/06 05:49:27;;;;;;;5.67;5.27;;;14.20;99.90;;;;;;4960786;28;20652;-42
2023/05/06 05:51:52;;;;;;;6.00;5.33;;;14.40;99.90;;;;;;4977843;28;20574;-41
2023/05/06 05:54:18;;;;;;;6.20;5.70;;;14.50;99.90;;;;;;4994826;28;20187;-42
2023/05/06 05:56:44;;;;;;;5.80;5.30;;;14.70;99.90;;;;;;4996799;28;20466;-41
2023/05/06 05:59:09;;;;;;;5.70;5.20;;;14.80;11.20;;;;;;4993966;28;20168;-39
2023/05/06 06:01:35;;;;;;;5.60;5.00;;;15.00;1.00;;;;;;4994099;28;20270;-39
2023/05/06 06:04:01;;;;;;;5.00;4.60;;;15.20;1.00;;;;;;4994176;28;20186;-40
2023/05/06 06:06:26;;;;;;;4.90;4.20;;;15.30;99.90;;;;;;4994108;28;20222;-42
2023/05/06 06:08:52;;;;;;;4.80;4.40;;;15.30;99.90;;;;;;4993747;28;20226;-42
2023/05/06 06:11:18;;;;;;;4.70;3.53;;;15.40;99.90;;;;;;4977047;28;20581;-40
2023/05/06 06:13:44;;;;;;;4.17;3.87;;;15.50;48.20;;;;;;4994910;28;20223;-41
2023/05/06 06:16:10;;;;;;;4.30;4.00;;;15.60;1.00;;;;;;4994864;28;20176;-40
2023/05/06 06:18:37;;;;;;;4.97;3.53;;;15.70;1.00;;;;;;4994487;28;20242;-39
2023/05/06 06:21:03;;;;;;;4.23;3.40;;;15.80;1.00;;;;;;4996989;28;20444;-40
2023/05/06 06:23:28;;;;;;;5.23;3.63;;;15.80;1.00;;;;;;4997752;28;20458;-40
2023/05/06 06:25:54;;;;;;;4.10;3.60;;;15.80;99.90;;;;;;4999101;28;20521;-41
2023/05/06 06:28:20;;;;;;;5.17;3.80;;;15.90;1.00;;;;;;5000289;28;20210;-39
2023/05/06 06:30:46;;;;;;;3.80;3.50;;;16.00;99.90;;;;;;4999422;28;20270;-40
2023/05/06 06:33:11;;;;;;;3.60;3.30;;;16.10;99.90;;;;;;4998352;28;20527;-41
2023/05/06 06:35:37;;;;;;;4.23;3.83;;;16.10;99.90;;;;;;4980829;28;20180;-39
2023/05/06 06:38:02;;;;;;;4.10;3.80;;;16.10;1.00;;;;;;4999381;28;20184;-39
2023/05/06 06:40:29;;;;;;;6.03;3.47;;;16.20;1.00;;;;;;4999541;28;20603;-43
2023/05/06 06:42:54;;;;;;;3.37;3.07;;;16.30;20.20;;;;;;4999483;28;20245;-42
2023/05/06 06:45:21;;;;;;;4.17;3.77;;;16.10;99.90;;;;;;4999851;28;20426;-39
2023/05/06 06:47:46;;;;;;;4.13;3.73;;;16.00;99.90;;;;;;5000908;28;20191;-42
2023/05/06 06:50:12;;;;;;;3.73;3.33;;;16.20;1.00;;;;;;4980826;28;20415;-40
2023/05/06 06:52:40;;;;;;;3.10;2.63;;;16.40;1.00;;;;;;4998239;28;20320;-43
2023/05/06 06:55:06;;;;;;;3.77;3.47;;;16.60;1.00;;;;;;4999748;28;20450;-40
2023/05/06 06:57:32;;;;;;;5.10;4.37;;;16.90;28.60;;;;;;4999177;28;20693;-41
2023/05/06 06:59:57;;;;;;;3.63;3.33;;;16.90;1.00;;;;;;4998251;28;20511;-41
2023/05/06 07:02:23;;;;;;;4.40;2.93;;;17.00;53.70;;;;;;4998040;28;20668;-41
2023/05/06 07:04:49;;;;;;;2.77;2.50;;;17.20;1.00;;;;;;4998805;28;20179;-41
2023/05/06 07:07:14;;;;;;;4.30;2.70;;;17.40;1.00;;;;;;4999196;28;20219;-40
2023/05/06 07:09:40;;;;;;;3.93;2.90;;;17.70;99.90;;;;;;4998304;28;20176;-41
2023/05/06 07:12:06;;;;;;;3.20;2.90;;;17.90;1.00;;;;;;4999013;28;20494;-42
2023/05/06 07:14:33;;;;;;;2.93;2.63;;;18.10;1.00;;;;;;4998088;28;20179;-41
2023/05/06 07:17:02;;;;;;;3.60;2.97;;;18.30;99.90;;;;;;4998440;28;20863;-42
2023/05/06 07:19:30;;;;;;;3.47;3.03;;;18.50;99.90;;;;;;4996176;28;20411;-41
2023/05/06 07:21:56;;;;;;;3.13;2.60;;;18.70;99.90;;;;;;4995769;28;20431;-42
2023/05/06 07:24:22;;;;;;;3.37;3.07;;;18.80;20.50;;;;;;4998739;28;20437;-41
2023/05/06 07:26:48;;;;;;;3.33;3.03;;;18.90;1.00;;;;;;4997479;28;20681;-41
2023/05/06 07:29:14;;;;;;;3.07;2.77;;;18.90;1.00;;;;;;4998492;28;20498;-41
2023/05/06 07:31:40;;;;;;;3.30;2.40;;;18.90;1.00;;;;;;4998008;28;20473;-41
2023/05/06 07:34:06;;;;;;;5.20;2.63;;;18.90;1.00;;;;;;4996518;28;20415;-41
2023/05/06 07:36:39;;;;;;;3.30;2.90;;;18.90;99.90;;;;;;4977986;28;20191;-40
2023/05/06 07:39:08;;;;;;;2.90;2.60;;;18.80;99.90;;;;;;4996471;28;20399;-40
2023/05/06 07:41:33;;;;;;;4.70;3.10;;;18.80;99.90;;;;;;4979247;28;20470;-41
2023/05/06 07:43:59;;;;;;;3.20;3.00;;;18.90;99.90;;;;;;4996014;28;20419;-40
2023/05/06 07:46:25;;;;;;;3.07;2.67;;;19.00;99.90;;;;;;4996986;28;20326;-41
2023/05/06 07:48:51;;;;;;;4.00;2.50;;;19.00;99.90;;;;;;4978584;28;20447;-42
2023/05/06 07:51:18;;;;;;;3.07;2.10;;;19.00;99.90;;;;;;4996804;28;20316;-41
2023/05/06 07:53:43;;;;;;;3.20;2.83;;;19.10;99.90;;;;;;4997236;28;20331;-41
2023/05/06 07:56:09;;;;;;;3.27;2.40;;;19.20;99.90;;;;;;4997104;28;20566;-40
2023/05/06 07:58:35;;;;;;;2.67;2.47;;;19.50;99.90;;;;;;4979821;28;20218;-41
2023/05/06 08:01:02;;;;;;;2.63;2.20;;;19.90;99.90;;;;;;4997980;28;20225;-41
2023/05/06 08:03:29;;;;;;;2.93;2.50;;;20.30;99.90;;;;;;4996680;28;20299;-41
2023/05/06 08:05:54;;;;;;;2.97;2.67;;;20.90;99.90;;;;;;4980737;28;20462;-42
2023/05/06 08:08:21;;;;;;;3.87;2.30;;;21.10;52.90;;;;;;4998352;28;20438;-42
2023/05/06 08:10:47;;;;;;;3.00;2.67;;;20.70;17.80;;;;;;4962198;28;20266;-44
2023/05/06 08:13:13;;;;;;;3.70;2.30;;;20.60;1.00;;;;;;4995677;28;20901;-43
2023/05/06 08:15:39;;;;;;;2.43;2.23;;;20.40;1.00;;;;;;4996983;28;20191;-41
2023/05/06 08:18:05;;;;;;;2.50;2.27;;;20.30;1.00;;;;;;4963949;28;20441;-42
2023/05/06 08:20:30;;;;;;;3.70;1.80;;;20.20;1.00;;;;;;4995896;28;20689;-44
2023/05/06 08:22:56;;;;;;;3.20;2.30;;;20.20;1.00;;;;;;4977866;28;20180;-42
2023/05/06 08:25:22;;;;;;;3.70;2.30;;;20.50;1.00;;;;;;4995339;28;20180;-41
2023/05/06 08:27:48;;;;;;;2.90;2.50;;;20.50;1.00;;;;;;4977464;28;20176;-41
2023/05/06 08:30:14;;;;;;;3.17;2.50;;;21.00;1.00;;;;;;4993669;28;20211;-43
2023/05/06 08:32:40;;;;;;;2.40;2.20;;;21.50;1.00;;;;;;4996050;28;20199;-42
2023/05/06 08:35:06;;;;;;;3.80;2.27;;;22.00;1.00;;;;;;4996045;28;20551;-45
2023/05/06 08:37:32;;;;;;;2.97;2.47;;;22.30;1.00;;;;;;4996395;28;20188;-41
2023/05/06 08:39:58;;;;;;;2.20;1.90;;;22.80;1.00;;;;;;4985678;28;21018;-41
2023/05/06 08:42:25;;;;;;;5.17;1.77;;;23.00;1.00;;;;;;4968126;28;20184;-44
2023/05/06 08:44:51;;;;;;;2.37;1.90;;;23.10;1.00;;;;;;4996857;28;20997;-43
2023/05/06 08:47:20;;;;;;;2.90;1.80;;;23.30;1.00;;;;;;4996331;28;20572;-43
2023/05/06 08:49:46;;;;;;;2.23;1.67;;;23.50;1.00;;;;;;4993505;28;20403;-42
2023/05/06 08:52:12;;;;;;;1.93;1.80;;;23.30;1.00;;;;;;4991554;28;20501;-43
2023/05/06 08:54:37;;;;;;;2.47;1.93;;;22.80;1.00;;;;;;4992685;28;20742;-42
2023/05/06 08:57:07;;;;;;;2.73;1.80;;;22.30;1.00;;;;;;4974379;28;20172;-42
2023/05/06 08:59:33;;;;;;;2.70;1.80;;;22.00;1.00;;;;;;4991856;28;20179;-43
2023/05/06 09:02:03;;;;;;;1.70;1.60;;;21.90;1.00;;;;;;4992012;28;20449;-42
2023/05/06 09:04:29;;;;;;;4.40;2.13;;;21.80;1.00;;;;;;4975423;28;20644;-43
2023/05/06 09:06:57;;;;;;;2.40;1.67;;;21.90;1.00;;;;;;4976722;28;20830;-41
2023/05/06 09:09:24;;;;;;;2.70;1.80;;;22.20;1.00;;;;;;4977568;28;20427;-42
2023/05/06 09:11:55;;;;;;;3.37;2.57;;;22.40;1.00;;;;;;4979427;28;20503;-43
2023/05/06 09:14:21;;;;;;;4.90;2.60;;;22.90;1.00;;;;;;4996850;28;20426;-41
2023/05/06 09:16:49;;;;;;;3.77;1.83;;;23.50;1.00;;;;;;4996301;28;20435;-42
2023/05/06 09:19:16;;;;;;;1.57;1.40;;;23.50;1.00;;;;;;4997017;28;20911;-42
2023/05/06 09:21:44;;;;;;;1.60;1.50;;;23.70;1.00;;;;;;4995045;28;20467;-41
2023/05/06 09:24:11;;;;;;;1.57;1.10;;;23.90;1.00;;;;;;4995072;28;20449;-42
2023/05/06 09:26:39;;;;;;;2.60;1.50;;;24.20;1.00;;;;;;4995607;28;20551;-43
2023/05/06 09:29:05;;;;;;;2.87;1.50;;;24.50;1.00;;;;;;4976809;28;20498;-42
2023/05/06 09:31:31;;;;;;;1.60;1.40;;;24.80;1.00;;;;;;4994003;28;20427;-44
2023/05/06 09:33:58;;;;;;;2.43;1.23;;;25.00;1.00;;;;;;4977785;28;20418;-42
2023/05/06 09:36:26;;;;;;;1.87;1.00;;;25.70;1.00;;;;;;4976799;28;20431;-43
2023/05/06 09:38:54;;;;;;;2.17;1.30;;;25.80;1.00;;;;;;4995601;28;20512;-42
2023/05/06 09:41:21;;;;;;;1.70;1.47;;;26.30;1.00;;;;;;4995346;28;20427;-46
2023/05/06 09:43:48;;;;;;;1.60;1.20;;;26.70;1.00;;;;;;4976812;28;20442;-43
2023/05/06 09:46:17;;;;;;;2.10;1.07;;;27.00;1.00;;;;;;4991941;28;20778;-45
2023/05/06 09:48:44;;;;;;;1.07;0.87;;;26.90;1.00;;;;;;4976490;28;20738;-44
2023/05/06 09:51:10;;;;;;;1.60;1.40;;;26.90;1.00;;;;;;4993393;28;20422;-43
2023/05/06 09:53:36;;;;;;;1.57;1.10;;;27.10;1.00;;;;;;4990021;28;20475;-42
2023/05/06 09:56:06;;;;;;;2.53;1.37;;;27.20;1.00;;;;;;4994046;28;20411;-44
2023/05/06 09:58:32;;;;;;;2.47;1.27;;;27.00;1.00;;;;;;4992644;28;20423;-43
2023/05/06 10:00:58;;;;;;;1.67;1.13;;;26.90;1.00;;;;;;4991400;28;20748;-44
2023/05/06 10:03:25;;;;;;;1.90;1.50;;;26.70;1.00;;;;;;4989669;28;20470;-42
2023/05/06 10:05:53;;;;;;;2.10;1.47;;;26.30;1.00;;;;;;4989830;28;20607;-42
2023/05/06 10:08:20;;;;;;;1.73;1.10;;;26.10;1.00;;;;;;4990339;28;20757;-42
2023/05/06 10:10:48;;;;;;;3.23;1.50;;;25.90;1.00;;;;;;4974565;28;20821;-42
2023/05/06 10:13:14;;;;;;;1.83;1.47;;;25.70;1.00;;;;;;4992063;28;20541;-45
2023/05/06 10:15:40;;;;;;;2.00;1.43;;;25.60;1.00;;;;;;4995281;28;20443;-53
2023/05/06 10:18:08;;;;;;;3.17;1.60;;;25.50;1.00;;;;;;4993610;28;20482;-41
2023/05/06 10:20:35;;;;;;;2.83;1.37;;;25.60;1.00;;;;;;4993561;28;20425;-40
2023/05/06 10:23:23;;;;;;;2.00;1.10;;;25.90;1.00;;;;;;4991777;28;20433;-41
2023/05/06 10:25:52;;;;;;;2.13;1.33;;;26.40;1.00;;;;;;4995229;28;20564;-44
2023/05/06 10:28:20;;;;;;;2.30;1.53;;;26.80;1.00;;;;;;4992926;28;20724;-43
2023/05/06 10:30:47;;;;;;;2.10;1.50;;;26.80;1.00;;;;;;4992049;28;20408;-44
2023/05/06 10:33:14;;;;;;;2.70;1.43;;;27.00;1.00;;;;;;4992707;28;20860;-40
2023/05/06 10:35:43;;;;;;;5.67;1.50;;;26.80;1.00;;;;;;4992802;28;20418;-42
2023/05/06 10:38:35;;;;;;;1.83;1.30;;;26.90;1.00;;;;;;4993114;28;20427;-44
2023/05/06 10:41:01;;;;;;;2.03;1.83;;;27.50;1.00;;;;;;4990641;28;20426;-43
2023/05/06 10:43:29;;;;;;;1.80;1.50;;;28.30;1.00;;;;;;4992164;28;20462;-41
2023/05/06 10:46:03;;;;;;;2.20;1.40;;;28.80;1.00;;;;;;4994425;28;20494;-46
2023/05/06 10:48:29;;;;;;;2.20;1.33;;;29.30;1.00;;;;;;4993731;28;20857;-42
2023/05/06 10:51:20;;;;;;;1.83;1.33;;;29.60;1.00;;;;;;4994503;28;20415;-41
2023/05/06 10:53:55;;;;;;;2.77;2.07;;;29.70;1.00;;;;;;4993993;28;20509;-42
2023/05/06 10:56:21;;;;;;;2.43;1.30;;;29.50;1.00;;;;;;4994564;28;20827;-41
2023/05/06 10:58:47;;;;;;;3.13;1.50;;;29.40;1.00;;;;;;4995042;28;20418;-44
2023/05/06 11:01:14;;;;;;;1.63;1.10;;;29.50;1.00;;;;;;4960915;28;20291;-41
2023/05/06 11:03:44;;;;;;;1.87;1.17;;;29.80;1.00;;;;;;4992016;28;20407;-41
2023/05/06 11:06:10;;;;;;;1.70;1.33;;;30.40;1.00;;;;;;4995495;28;20485;-42
2023/05/06 11:08:36;;;;;;;1.70;1.20;;;30.70;1.00;;;;;;4992005;28;20457;-43
2023/05/06 11:11:33;;;;;;;2.27;1.40;;;31.00;1.00;;;;;;4977753;28;20456;-44
2023/05/06 11:14:11;;;;;;;2.57;1.33;;;31.60;1.00;;;;;;4976595;28;20405;-40
2023/05/06 11:16:51;;;;;;;2.80;1.40;;;31.80;1.00;;;;;;4974904;28;20435;-43
2023/05/06 11:19:28;;;;;;;1.87;1.43;;;31.90;1.00;;;;;;4975070;28;20394;-41
2023/05/06 11:21:56;;;;;;;2.67;1.30;;;31.60;1.00;;;;;;4975912;28;20898;-43
2023/05/06 11:24:39;;;;;;;2.43;1.67;;;30.70;1.00;;;;;;4974754;28;20415;-41
2023/05/06 11:27:05;;;;;;;1.77;1.30;;;30.10;1.00;;;;;;4975010;28;20475;-41
2023/05/06 11:29:31;;;;;;;3.43;1.43;;;29.60;1.00;;;;;;4956621;28;20862;-42
2023/05/06 11:31:57;;;;;;;2.30;1.37;;;29.40;1.00;;;;;;4974649;28;20484;-42
2023/05/06 11:34:24;;;;;;;2.03;1.40;;;29.80;1.00;;;;;;4974355;28;20756;-45
2023/05/06 11:37:05;;;;;;;2.50;1.40;;;30.00;1.00;;;;;;4958230;28;20402;-46
2023/05/06 11:39:35;;;;;;;1.83;1.40;;;30.20;1.00;;;;;;4977229;28;20391;-46
2023/05/06 11:42:06;;;;;;;1.90;1.50;;;30.80;1.00;;;;;;4992136;28;20442;-47
2023/05/06 11:44:34;;;;;;;2.10;1.20;;;30.90;1.00;;;;;;4996188;28;20400;-48
2023/05/06 11:47:05;;;;;;;2.00;1.37;;;31.40;1.00;;;;;;4979102;28;20499;-48
2023/05/06 11:49:40;;;;;;;3.67;1.60;;;31.80;1.00;;;;;;4996864;28;20434;-51
2023/05/06 11:52:10;;;;;;;2.60;1.27;;;31.70;1.00;;;;;;4978455;28;20478;-45
2023/05/06 11:54:40;;;;;;;2.20;1.73;;;31.70;1.00;;;;;;4995381;28;20411;-49
2023/05/06 11:57:06;;;;;;;1.27;0.90;;;31.30;1.00;;;;;;4995460;28;20409;-46
2023/05/06 11:59:36;;;;;;;2.00;1.50;;;30.80;1.00;;;;;;4996519;28;21054;-45
2023/05/06 12:02:07;;;;;;;2.97;1.40;;;30.70;1.00;;;;;;4994222;28;20196;-48
2023/05/06 12:04:44;;;;;;;1.83;1.43;;;30.60;1.00;;;;;;4996172;28;20426;-46
2023/05/06 12:07:11;;;;;;;2.27;1.50;;;30.30;1.00;;;;;;4996202;28;20922;-46
2023/05/06 12:09:45;;;;;;;1.50;1.27;;;30.70;1.00;;;;;;4997063;28;20392;-47
2023/05/06 12:12:11;;;;;;;2.20;1.53;;;31.30;1.00;;;;;;4993439;28;20458;-47
2023/05/06 12:14:38;;;;;;;2.90;1.20;;;31.90;1.00;;;;;;4994809;28;20415;-47
2023/05/06 12:17:04;;;;;;;2.20;1.37;;;31.70;1.00;;;;;;4994694;28;20766;-47
2023/05/06 12:19:30;;;;;;;1.40;1.30;;;31.50;1.00;;;;;;4995399;28;20661;-47
2023/05/06 12:22:16;;;;;;;1.80;1.40;;;31.30;1.00;;;;;;4994271;28;20409;-45
2023/05/06 12:24:42;;;;;;;2.77;1.40;;;31.20;1.00;;;;;;4995669;28;20425;-51
2023/05/06 12:27:08;;;;;;;2.33;1.57;;;31.30;1.00;;;;;;4993910;28;20721;-47
2023/05/06 12:29:34;;;;;;;2.43;1.70;;;31.00;1.00;;;;;;4993373;28;20415;-48
2023/05/06 12:32:10;;;;;;;2.70;1.30;;;30.80;1.00;;;;;;4993554;28;20438;-46
2023/05/06 12:34:37;;;;;;;4.40;1.80;;;30.30;1.00;;;;;;4995667;28;20156;-47
2023/05/06 12:37:03;;;;;;;2.30;1.60;;;29.70;1.00;;;;;;4977881;28;20417;-47
2023/05/06 12:39:34;;;;;;;2.50;1.33;;;29.30;1.00;;;;;;4977643;28;20437;-45
2023/05/06 12:42:00;;;;;;;1.40;1.07;;;28.90;1.00;;;;;;4994670;28;20924;-46
2023/05/06 12:44:32;;;;;;;2.77;1.73;;;28.60;1.00;;;;;;4996544;28;20518;-46
2023/05/06 12:47:08;;;;;;;2.10;1.60;;;28.40;1.00;;;;;;4996691;28;20261;-47
2023/05/06 12:49:48;;;;;;;2.97;2.20;;;28.40;1.00;;;;;;4998948;28;20483;-51
2023/05/06 12:52:15;;;;;;;1.93;1.63;;;28.90;1.00;;;;;;4997640;28;21130;-47
2023/05/06 12:54:40;;;;;;;2.23;1.53;;;29.30;1.00;;;;;;4979973;28;20447;-46
2023/05/06 12:57:06;;;;;;;2.57;1.70;;;30.00;1.00;;;;;;4977575;28;20887;-45